createdAt,value
2023-05-23T15:16:55.290Z,17.20
2023-05-23T15:19:27.026Z,17.10
2023-05-23T15:21:58.770Z,16.90
2023-05-23T15:24:30.488Z,16.80
2023-05-23T15:27:15.739Z,16.90
2023-05-23T15:29:51.652Z,16.90
2023-05-23T15:32:24.779Z,16.90
2023-05-23T15:34:56.623Z,16.80
2023-05-23T15:37:28.353Z,16.70
2023-05-23T15:40:00.128Z,16.90
2023-05-23T15:42:31.894Z,17.10
2023-05-23T15:45:03.903Z,17.10
2023-05-23T15:47:37.015Z,17.40
2023-05-23T15:50:10.339Z,17.40
2023-05-23T15:52:43.076Z,17.40
2023-05-23T15:55:14.782Z,17.50
2023-05-23T15:57:46.501Z,17.50
2023-05-23T16:00:19.078Z,17.50
2023-05-23T16:02:52.207Z,17.40
2023-05-23T16:05:23.994Z,16.90
2023-05-23T16:07:55.742Z,16.80
2023-05-23T16:10:27.490Z,17.50
2023-05-23T16:12:59.208Z,17.40
2023-05-23T16:15:30.951Z,17.50
2023-05-23T16:18:04.325Z,17.60
2023-05-23T16:20:36.096Z,17.70
2023-05-23T16:23:07.852Z,17.60
2023-05-23T16:25:39.726Z,17.40
2023-05-23T16:28:11.605Z,17.60
2023-05-23T16:30:43.335Z,17.50
2023-05-23T16:40:56.279Z,17.20
2023-05-23T16:43:27.999Z,17.20
2023-05-23T16:45:59.826Z,16.50
2023-05-23T16:48:33.027Z,16.80
2023-05-23T16:51:04.938Z,16.70
2023-05-23T16:53:36.714Z,16.70
2023-05-23T16:56:08.447Z,16.70
2023-05-23T16:58:40.191Z,16.60
2023-05-23T17:01:11.930Z,16.50
2023-05-23T17:03:45.171Z,16.60
2023-05-23T17:06:17.028Z,16.50
2023-05-23T17:08:48.782Z,16.50
2023-05-23T17:11:20.490Z,16.40
2023-05-23T17:13:52.202Z,16.50
2023-05-23T17:16:24.025Z,16.50
2023-05-23T17:18:57.227Z,16.40
2023-05-23T17:21:31.347Z,16.10
2023-05-23T17:54:54.608Z,15.90
2023-05-23T18:07:46.627Z,15.60
2023-05-23T18:10:18.407Z,15.70
2023-05-23T18:12:50.148Z,15.60
2023-05-23T18:15:22.027Z,15.60
2023-05-23T18:17:53.887Z,15.60
2023-05-23T18:20:27.112Z,15.50
2023-05-23T18:22:58.889Z,15.50
2023-05-23T18:25:30.625Z,15.50
2023-05-23T18:28:02.413Z,15.50
2023-05-23T18:30:34.136Z,15.50
2023-05-23T18:33:05.940Z,15.40
2023-05-23T18:35:39.126Z,15.40
2023-05-23T18:38:10.897Z,15.40
2023-05-23T18:40:42.885Z,15.40
2023-05-23T18:43:14.823Z,15.30
2023-05-23T18:45:46.561Z,15.20
2023-05-23T18:48:18.356Z,15.00
2023-05-23T18:50:51.513Z,15.00
2023-05-23T18:53:23.431Z,14.90
2023-05-23T18:55:55.543Z,14.90
2023-05-23T18:58:27.264Z,14.90
2023-05-23T19:06:05.635Z,14.50
2023-05-23T19:08:37.357Z,14.70
2023-05-23T19:11:09.082Z,14.50
2023-05-23T19:13:40.800Z,14.50
2023-05-23T19:16:12.599Z,14.40
2023-05-23T19:18:44.392Z,14.40
2023-05-23T19:21:17.568Z,14.30
2023-05-23T19:23:49.307Z,14.30
2023-05-23T19:26:21.057Z,14.20
2023-05-23T19:28:53.142Z,14.40
2023-05-23T19:31:24.910Z,14.20
2023-05-23T19:33:56.709Z,14.10
2023-05-23T19:36:29.780Z,14.00
2023-05-23T19:39:01.485Z,14.00
2023-05-23T19:41:33.210Z,13.90
2023-05-23T19:44:04.934Z,13.80
2023-05-23T19:46:36.867Z,13.70
2023-05-23T19:49:08.706Z,13.70
2023-05-23T19:51:41.783Z,13.60
2023-05-23T19:54:13.557Z,13.60
2023-05-23T19:56:45.316Z,13.50
2023-05-23T20:09:26.892Z,13.20
2023-05-23T20:11:58.620Z,13.20
2023-05-23T20:14:30.669Z,13.20
2023-05-23T20:17:02.378Z,13.20
2023-05-23T20:19:34.225Z,13.00
2023-05-23T20:24:42.074Z,12.90
2023-05-23T20:27:13.790Z,13.00
2023-05-23T20:29:45.470Z,12.90
2023-05-23T20:32:19.137Z,13.00
2023-05-23T20:34:50.876Z,12.80
2023-05-23T20:37:24.262Z,12.90
2023-05-23T20:39:55.980Z,12.70
2023-05-23T20:42:27.683Z,12.70
2023-05-23T20:44:59.381Z,12.80
2023-05-23T20:47:31.156Z,12.70
2023-05-23T20:52:36.840Z,12.60
2023-05-23T20:55:08.672Z,12.70
2023-05-23T20:57:40.360Z,12.60
2023-05-23T21:00:13.099Z,12.50
2023-05-23T21:02:45.016Z,12.50
2023-05-23T21:12:54.372Z,11.90
2023-05-23T21:15:26.124Z,12.70
2023-05-23T21:17:57.887Z,12.30
2023-05-23T21:20:29.673Z,12.50
2023-05-23T21:23:02.727Z,12.40
2023-05-23T21:25:34.437Z,12.40
2023-05-23T21:28:06.154Z,12.10
2023-05-23T21:30:37.942Z,12.30
2023-05-23T21:33:09.901Z,12.40
2023-05-23T21:35:41.843Z,12.00
2023-05-23T21:38:15.558Z,12.30
2023-05-23T21:40:47.266Z,12.00
2023-05-23T21:43:18.997Z,12.00
2023-05-23T21:45:50.717Z,11.90
2023-05-23T21:48:22.402Z,12.00
2023-05-23T21:50:54.150Z,11.90
2023-05-23T21:53:27.240Z,11.90
2023-05-23T21:55:59.039Z,11.90
2023-05-23T21:58:30.713Z,11.80
